Time;durP1;ratioP1;P1;durP2;ratioP2;P2;SDS_P1;SDS_P2;PMS_P1;PMS_P2;Temp;Humidity;BMP_temperature;BMP_pressure;BME280_temperature;BME280_humidity;BME280_pressure;Samples;Min_cycle;Max_cycle;Signal;HPM_P1;HPM_P2
2022/01/02 00:00:25;;;;;;;19.15;14.23;;;10.80;99.90;;;;;;5015544;28;20037;-40
2022/01/02 00:02:57;;;;;;;20.48;13.63;;;10.80;99.90;;;;;;5015492;28;20107;-41
2022/01/02 00:05:23;;;;;;;21.23;13.88;;;10.80;99.90;;;;;;5014910;28;20482;-41
2022/01/02 00:08:09;;;;;;;21.27;13.52;;;10.80;99.90;;;;;;5015368;28;20022;-43
2022/01/02 00:10:59;;;;;;;20.17;12.85;;;10.80;99.90;;;;;;5015732;28;20026;-43
2022/01/02 00:13:31;;;;;;;19.60;13.32;;;10.80;99.90;;;;;;5015634;28;20038;-41
2022/01/02 00:16:03;;;;;;;17.50;12.52;;;10.80;99.90;;;;;;5015504;28;20065;-43
2022/01/02 00:18:33;;;;;;;20.20;13.57;;;10.80;99.90;;;;;;4997951;28;20453;-42
2022/01/02 00:21:02;;;;;;;21.42;14.15;;;10.80;99.90;;;;;;5015127;28;20041;-41
2022/01/02 00:23:33;;;;;;;20.02;13.32;;;10.80;99.90;;;;;;5015385;28;20040;-42
2022/01/02 00:26:05;;;;;;;19.20;12.75;;;10.80;99.90;;;;;;5015102;28;20029;-43
2022/01/02 00:28:32;;;;;;;32.35;21.88;;;10.80;99.90;;;;;;5015359;28;20417;-40
2022/01/02 00:30:58;;;;;;;26.65;17.70;;;10.80;99.90;;;;;;5015325;28;20359;-41
2022/01/02 00:33:25;;;;;;;20.00;12.95;;;10.70;99.90;;;;;;5014851;28;20037;-40
2022/01/02 00:35:51;;;;;;;19.10;11.90;;;10.70;99.90;;;;;;5015064;28;20025;-42
2022/01/02 00:38:20;;;;;;;20.27;13.95;;;10.70;99.90;;;;;;5014711;28;20084;-43
2022/01/02 00:40:48;;;;;;;20.92;14.75;;;10.70;99.90;;;;;;5015089;28;20029;-43
2022/01/02 00:43:22;;;;;;;19.10;11.98;;;10.70;99.90;;;;;;5014996;28;20041;-41
2022/01/02 00:45:51;;;;;;;33.15;24.25;;;10.70;99.90;;;;;;5014270;28;20465;-43
2022/01/02 00:48:24;;;;;;;15.68;12.43;;;10.70;99.90;;;;;;5014598;28;20025;-40
2022/01/02 00:50:52;;;;;;;17.10;11.63;;;10.70;99.90;;;;;;4980553;28;20034;-42
2022/01/02 00:53:22;;;;;;;17.20;11.45;;;10.70;99.90;;;;;;5014732;28;20109;-40
2022/01/02 00:55:56;;;;;;;17.52;12.60;;;10.60;99.90;;;;;;5014507;28;20042;-41
2022/01/02 00:58:35;;;;;;;19.58;13.68;;;10.70;99.90;;;;;;5014452;28;20179;-44
2022/01/02 01:01:06;;;;;;;20.25;13.77;;;10.70;99.90;;;;;;5015196;28;20083;-43
2022/01/02 01:03:33;;;;;;;30.23;21.38;;;10.70;99.90;;;;;;5015016;28;20037;-41
2022/01/02 01:06:03;;;;;;;26.92;19.33;;;10.70;99.90;;;;;;5014507;28;20052;-45
2022/01/02 01:08:33;;;;;;;21.83;14.93;;;10.60;99.90;;;;;;5014289;28;20478;-40
2022/01/02 01:10:59;;;;;;;21.80;14.20;;;10.60;99.90;;;;;;5014553;28;20173;-41
2022/01/02 01:13:26;;;;;;;18.38;12.43;;;10.60;99.90;;;;;;5014684;28;20144;-42
2022/01/02 01:15:52;;;;;;;20.75;12.63;;;10.60;99.90;;;;;;4980009;28;20044;-43
2022/01/02 01:18:18;;;;;;;19.75;13.52;;;10.60;99.90;;;;;;5013855;28;20042;-42
2022/01/02 01:20:45;;;;;;;16.20;12.38;;;10.60;99.90;;;;;;5014161;28;20026;-41
2022/01/02 01:23:16;;;;;;;17.25;11.63;;;10.60;99.90;;;;;;4996307;28;20512;-43
2022/01/02 01:25:46;;;;;;;22.13;12.35;;;10.60;99.90;;;;;;5014383;28;20072;-42
2022/01/02 01:28:13;;;;;;;19.42;11.63;;;10.60;99.90;;;;;;5014178;28;20046;-42
2022/01/02 01:30:40;;;;;;;15.20;11.63;;;10.60;99.90;;;;;;5014111;28;20113;-43
2022/01/02 01:33:05;;;;;;;20.33;12.43;;;10.60;99.90;;;;;;5014232;28;20049;-42
2022/01/02 01:35:31;;;;;;;16.20;10.60;;;10.60;99.90;;;;;;4995958;28;20472;-40
2022/01/02 01:37:57;;;;;;;15.38;11.00;;;10.60;99.90;;;;;;4979320;28;20042;-45
2022/01/02 01:40:23;;;;;;;16.50;10.60;;;10.60;99.90;;;;;;5013727;28;20029;-43
2022/01/02 01:42:59;;;;;;;14.68;9.93;;;10.40;99.90;;;;;;4979506;28;20571;-43
2022/01/02 01:45:29;;;;;;;14.63;10.98;;;10.30;99.90;;;;;;5013676;28;20040;-42
2022/01/02 01:48:03;;;;;;;16.45;12.10;;;10.30;99.90;;;;;;5013735;28;20021;-43
2022/01/02 01:50:32;;;;;;;21.20;15.65;;;10.40;99.90;;;;;;5013822;28;20062;-41
2022/01/02 01:52:59;;;;;;;18.40;14.68;;;10.40;99.90;;;;;;4980068;28;20038;-41
2022/01/02 01:55:25;;;;;;;21.50;16.95;;;10.40;99.90;;;;;;5013466;28;20044;-42
2022/01/02 01:57:52;;;;;;;15.57;11.23;;;10.40;99.90;;;;;;5013838;28;20026;-42
2022/01/02 02:00:20;;;;;;;26.92;20.70;;;10.40;99.90;;;;;;5013467;28;20030;-40
2022/01/02 02:02:46;;;;;;;17.23;13.00;;;10.30;99.90;;;;;;5013551;28;20040;-41
2022/01/02 02:05:12;;;;;;;13.23;9.93;;;10.40;99.90;;;;;;4963114;28;20030;-43
2022/01/02 02:07:42;;;;;;;14.73;9.95;;;10.40;99.90;;;;;;5013771;28;20133;-44
2022/01/02 02:10:23;;;;;;;14.95;9.48;;;10.40;99.90;;;;;;5013773;28;20040;-41
2022/01/02 02:12:51;;;;;;;15.13;11.07;;;10.40;99.90;;;;;;5013831;28;20037;-43
2022/01/02 02:15:18;;;;;;;13.77;10.90;;;10.40;99.90;;;;;;5013777;28;20072;-40
2022/01/02 02:17:46;;;;;;;15.13;11.50;;;10.40;99.90;;;;;;5013325;28;20079;-43
2022/01/02 02:20:17;;;;;;;13.48;8.63;;;10.40;99.90;;;;;;5013353;28;20048;-41
2022/01/02 02:22:46;;;;;;;14.63;10.07;;;10.40;99.90;;;;;;5013230;28;20030;-42
2022/01/02 02:25:15;;;;;;;13.77;10.02;;;10.40;99.90;;;;;;5013461;28;20038;-42
2022/01/02 02:27:51;;;;;;;12.13;8.80;;;10.40;99.90;;;;;;4978962;28;20046;-40
2022/01/02 02:30:17;;;;;;;13.43;8.40;;;10.40;99.90;;;;;;5013375;28;20029;-43
2022/01/02 02:32:43;;;;;;;10.57;7.68;;;10.40;99.90;;;;;;5013188;28;20037;-40
2022/01/02 02:35:09;;;;;;;12.48;8.85;;;10.40;99.90;;;;;;4978871;28;20125;-41
2022/01/02 02:37:42;;;;;;;14.45;9.63;;;10.40;99.90;;;;;;4995036;28;20041;-42
2022/01/02 02:40:13;;;;;;;13.68;8.45;;;10.40;99.90;;;;;;5013512;28;20058;-42
2022/01/02 02:42:54;;;;;;;13.02;9.20;;;10.40;99.90;;;;;;4980250;28;20042;-41
2022/01/02 02:51:22;;;;;;;13.32;9.70;;;10.30;99.90;;;;;;5013699;28;20041;-43
2022/01/02 02:53:49;;;;;;;10.25;7.40;;;10.30;99.90;;;;;;5013016;28;20065;-41
2022/01/02 02:56:22;;;;;;;12.32;8.02;;;10.30;99.90;;;;;;4978902;28;20041;-45
2022/01/02 02:58:50;;;;;;;11.00;8.98;;;10.30;99.90;;;;;;5012889;28;20038;-40
2022/01/02 03:01:18;;;;;;;13.38;10.48;;;10.30;99.90;;;;;;4939746;28;20039;-41
2022/01/02 03:03:46;;;;;;;14.93;10.63;;;10.30;99.90;;;;;;4972127;28;20090;-44
2022/01/02 03:06:13;;;;;;;20.23;14.45;;;10.30;99.90;;;;;;4940106;28;20572;-40
2022/01/02 03:08:40;;;;;;;14.20;9.98;;;10.30;99.90;;;;;;4974001;28;20388;-40
2022/01/02 03:11:09;;;;;;;13.18;9.60;;;10.30;99.90;;;;;;4975453;28;20039;-43
2022/01/02 03:13:35;;;;;;;11.30;7.72;;;10.30;99.90;;;;;;4975239;28;20039;-42
2022/01/02 03:16:01;;;;;;;12.38;9.27;;;10.30;99.90;;;;;;4975433;28;20045;-41
2022/01/02 03:18:27;;;;;;;9.82;7.10;;;10.30;99.90;;;;;;4911195;28;20402;-44
2022/01/02 03:20:53;;;;;;;10.02;7.35;;;10.40;99.90;;;;;;4943205;28;20122;-40
2022/01/02 03:23:18;;;;;;;12.35;9.00;;;10.30;99.90;;;;;;4943078;28;20186;-41
2022/01/02 03:25:44;;;;;;;13.35;8.02;;;10.30;99.90;;;;;;4974980;28;20070;-43
2022/01/02 03:28:10;;;;;;;10.02;6.50;;;10.40;99.90;;;;;;4975185;28;20031;-42
2022/01/02 03:30:36;;;;;;;10.02;7.25;;;10.40;99.90;;;;;;4942847;28;20066;-42
2022/01/02 03:33:02;;;;;;;11.38;7.18;;;10.40;99.90;;;;;;4988639;28;20045;-41
2022/01/02 03:35:28;;;;;;;12.20;8.32;;;10.40;99.90;;;;;;4981830;28;20482;-43
2022/01/02 03:37:54;;;;;;;13.98;9.18;;;10.40;99.90;;;;;;5016103;28;20026;-43
2022/01/02 03:40:20;;;;;;;11.68;8.98;;;10.50;99.90;;;;;;5016035;28;20029;-44
2022/01/02 03:42:46;;;;;;;13.25;10.93;;;10.50;99.90;;;;;;5015984;28;20026;-40
2022/01/02 03:45:11;;;;;;;14.30;9.88;;;10.50;99.90;;;;;;5016180;28;20058;-42
2022/01/02 03:47:37;;;;;;;16.38;12.73;;;10.50;99.90;;;;;;5015927;28;20026;-42
2022/01/02 03:50:04;;;;;;;10.10;7.65;;;10.50;99.90;;;;;;5016077;28;20030;-41
2022/01/02 03:52:30;;;;;;;9.15;5.95;;;10.50;99.90;;;;;;4981778;28;20045;-41
2022/01/02 03:54:57;;;;;;;10.95;6.20;;;10.50;99.90;;;;;;5015754;28;20353;-41
2022/01/02 03:57:23;;;;;;;14.52;10.30;;;10.50;99.90;;;;;;5016096;28;20034;-43
2022/01/02 04:02:24;;;;;;;15.07;9.57;;;10.50;99.90;;;;;;5022313;23;20309;-41
2022/01/02 04:04:49;;;;;;;9.23;6.25;;;10.60;99.90;;;;;;4938567;29;20019;-43
2022/01/02 04:07:15;;;;;;;7.68;5.82;;;10.60;99.90;;;;;;4938481;29;20034;-42
2022/01/02 04:09:41;;;;;;;29.83;19.27;;;10.60;99.90;;;;;;4938143;29;20099;-44
2022/01/02 04:12:08;;;;;;;39.20;25.77;;;10.50;99.90;;;;;;4904762;29;20038;-43
2022/01/02 04:14:34;;;;;;;23.67;16.48;;;10.50;99.90;;;;;;4904849;29;20071;-43
2022/01/02 04:16:59;;;;;;;26.08;19.92;;;10.50;99.90;;;;;;4938663;29;20024;-42
2022/01/02 04:19:25;;;;;;;18.88;14.52;;;10.50;99.90;;;;;;4904501;29;20515;-41
2022/01/02 04:21:51;;;;;;;16.70;12.77;;;10.50;99.90;;;;;;4938283;29;20463;-40
2022/01/02 04:24:16;;;;;;;10.27;7.32;;;10.50;99.90;;;;;;4904760;29;20035;-41
2022/01/02 04:26:42;;;;;;;8.57;6.72;;;10.40;99.90;;;;;;4873215;29;20031;-41
2022/01/02 04:29:08;;;;;;;8.95;5.57;;;10.50;99.90;;;;;;4873659;29;20043;-42
2022/01/02 04:31:34;;;;;;;8.32;6.05;;;10.50;99.90;;;;;;4938094;29;20074;-41
2022/01/02 04:34:00;;;;;;;8.85;6.60;;;10.50;99.90;;;;;;4937738;29;20419;-41
2022/01/02 04:36:26;;;;;;;9.82;5.57;;;10.50;99.90;;;;;;4937917;29;20031;-41
2022/01/02 04:38:51;;;;;;;9.00;6.18;;;10.50;99.90;;;;;;4937742;29;20090;-41
2022/01/02 04:41:17;;;;;;;7.82;6.13;;;10.60;99.90;;;;;;4937834;29;20074;-43
2022/01/02 04:43:43;;;;;;;6.25;5.00;;;10.60;99.90;;;;;;4904377;29;20071;-42
2022/01/02 04:46:09;;;;;;;7.63;5.25;;;10.60;99.90;;;;;;4832429;29;20065;-41
2022/01/02 04:48:35;;;;;;;8.27;5.38;;;10.60;99.90;;;;;;4879002;29;20489;-41
2022/01/02 04:51:01;;;;;;;7.60;5.55;;;10.60;99.90;;;;;;4847954;29;20041;-43
2022/01/02 04:53:26;;;;;;;7.05;5.75;;;10.60;99.90;;;;;;4878849;29;20025;-42
2022/01/02 04:55:52;;;;;;;7.18;5.13;;;10.60;99.90;;;;;;4878970;29;20040;-41
2022/01/02 04:58:18;;;;;;;8.02;5.03;;;10.60;99.90;;;;;;4878623;29;20053;-43
2022/01/02 05:00:44;;;;;;;6.60;4.65;;;10.60;99.90;;;;;;4878426;29;20080;-43
2022/01/02 05:03:10;;;;;;;7.70;5.10;;;10.60;99.90;;;;;;4878663;29;20074;-40
2022/01/02 05:05:35;;;;;;;7.20;5.05;;;10.60;99.90;;;;;;4878641;29;20036;-42
2022/01/02 05:08:01;;;;;;;7.57;5.72;;;10.60;99.90;;;;;;4878538;29;20033;-42
2022/01/02 05:10:27;;;;;;;8.13;5.25;;;10.60;99.90;;;;;;4879223;29;20112;-43
2022/01/02 05:12:53;;;;;;;10.13;5.45;;;10.60;99.90;;;;;;4847676;29;20122;-43
2022/01/02 05:15:19;;;;;;;6.88;5.38;;;10.60;99.90;;;;;;4878405;29;20032;-43
2022/01/02 05:17:45;;;;;;;8.23;5.88;;;10.60;99.90;;;;;;4878413;29;20033;-41
2022/01/02 05:20:10;;;;;;;6.43;5.05;;;10.60;99.90;;;;;;4878707;29;20116;-42
2022/01/02 05:22:37;;;;;;;8.27;5.60;;;10.70;99.90;;;;;;4883928;29;20177;-43
2022/01/02 05:25:04;;;;;;;10.32;7.68;;;10.70;99.90;;;;;;4936740;29;20030;-43
2022/01/02 05:27:30;;;;;;;7.93;5.50;;;10.70;99.90;;;;;;4903485;29;20411;-42
2022/01/02 05:29:56;;;;;;;8.88;4.90;;;10.60;99.90;;;;;;4918957;29;20031;-41
2022/01/02 05:32:22;;;;;;;8.55;5.55;;;10.70;99.90;;;;;;4936674;29;20106;-40
2022/01/02 05:34:48;;;;;;;7.25;5.55;;;10.60;99.90;;;;;;4936949;29;20062;-43
2022/01/02 05:37:14;;;;;;;6.05;4.80;;;10.70;99.90;;;;;;4936559;29;20111;-43
2022/01/02 05:39:39;;;;;;;8.48;5.68;;;10.70;99.90;;;;;;4936846;29;20039;-42
2022/01/02 05:42:06;;;;;;;6.35;4.97;;;10.70;99.90;;;;;;4903237;29;20036;-44
2022/01/02 05:44:32;;;;;;;7.00;5.38;;;10.70;99.90;;;;;;4936473;29;20062;-44
2022/01/02 05:46:58;;;;;;;7.63;4.90;;;10.70;99.90;;;;;;4936859;29;20078;-44
2022/01/02 05:49:24;;;;;;;10.15;4.90;;;10.70;99.90;;;;;;4936403;29;20079;-42
2022/01/02 05:51:49;;;;;;;14.18;9.05;;;10.70;99.90;;;;;;4903147;29;20031;-43
2022/01/02 05:54:15;;;;;;;10.35;6.97;;;10.40;99.90;;;;;;4936424;29;20020;-42
2022/01/02 05:56:41;;;;;;;11.60;7.15;;;10.00;99.90;;;;;;4872104;29;20040;-42
2022/01/02 05:59:07;;;;;;;12.95;8.25;;;9.70;99.90;;;;;;4936625;29;20035;-41
2022/01/02 06:01:33;;;;;;;8.82;6.47;;;9.30;99.90;;;;;;4918563;29;20508;-42
2022/01/02 06:04:00;;;;;;;9.43;6.10;;;9.00;99.90;;;;;;4936667;29;20027;-43
2022/01/02 06:06:26;;;;;;;7.75;5.85;;;8.90;99.90;;;;;;4936522;29;20055;-41
2022/01/02 06:08:52;;;;;;;9.55;6.03;;;8.90;99.90;;;;;;4936600;29;20028;-42
2022/01/02 06:11:18;;;;;;;8.45;6.03;;;8.70;99.90;;;;;;4936353;29;20030;-43
2022/01/02 06:13:43;;;;;;;7.70;5.60;;;8.50;99.90;;;;;;4936502;29;20099;-41
2022/01/02 06:16:11;;;;;;;9.02;5.82;;;8.40;99.90;;;;;;4825903;29;20082;-42
2022/01/02 06:18:37;;;;;;;9.23;5.97;;;8.10;99.90;;;;;;4933411;29;20032;-40
2022/01/02 06:21:03;;;;;;;8.45;6.13;;;8.00;99.90;;;;;;4936257;29;20031;-44
2022/01/02 06:23:29;;;;;;;10.38;6.68;;;8.00;99.90;;;;;;4936166;29;20032;-41
2022/01/02 06:25:54;;;;;;;10.32;5.95;;;8.10;99.90;;;;;;4936370;29;20051;-43
2022/01/02 06:28:20;;;;;;;9.98;6.50;;;8.00;99.90;;;;;;4936378;29;20032;-40
2022/01/02 06:30:46;;;;;;;9.23;6.43;;;7.90;99.90;;;;;;4902807;29;20131;-41
2022/01/02 06:33:12;;;;;;;9.35;6.03;;;7.90;99.90;;;;;;4936344;29;20062;-43
2022/01/02 06:35:38;;;;;;;7.15;4.75;;;8.00;99.90;;;;;;4936181;29;20020;-43
2022/01/02 06:38:15;;;;;;;8.35;5.80;;;7.80;99.90;;;;;;4936192;29;20455;-43
2022/01/02 06:40:41;;;;;;;8.45;6.22;;;7.70;99.90;;;;;;4936376;29;20487;-42
2022/01/02 06:43:06;;;;;;;11.52;8.05;;;7.80;99.90;;;;;;4919937;29;20043;-42
2022/01/02 06:45:34;;;;;;;20.13;13.73;;;7.90;99.90;;;;;;4939641;29;20472;-43
2022/01/02 06:48:00;;;;;;;17.40;11.48;;;8.10;99.90;;;;;;4907166;29;20039;-43
2022/01/02 06:50:26;;;;;;;23.15;14.68;;;8.10;99.90;;;;;;4939784;29;20365;-44
2022/01/02 06:52:52;;;;;;;25.92;16.17;;;8.40;99.90;;;;;;4939777;29;20111;-43
2022/01/02 06:55:18;;;;;;;23.13;14.63;;;9.30;99.90;;;;;;4939785;29;20027;-44
2022/01/02 06:57:43;;;;;;;25.90;14.52;;;11.10;99.90;;;;;;4906490;29;20040;-41
2022/01/02 07:00:10;;;;;;;98.93;38.92;;;;;;;;;;4939329;29;20043;-41
2022/01/02 07:02:35;;;;;;;150.57;59.53;;;14.40;99.90;;;;;;4874622;29;20055;-46
2022/01/02 07:05:01;;;;;;;106.80;44.75;;;;;;;;;;4939309;29;20379;-41
2022/01/02 07:07:27;;;;;;;46.22;23.55;;;18.50;99.90;;;;;;4906098;29;20095;-43
2022/01/02 07:09:53;;;;;;;35.35;22.48;;;18.70;99.90;;;;;;4921892;29;20438;-40
2022/01/02 07:12:19;;;;;;;17.75;12.35;;;20.00;99.90;;;;;;4939489;29;20027;-44
2022/01/02 07:14:45;;;;;;;14.23;9.00;;;20.00;99.90;;;;;;4906632;29;20090;-42
2022/01/02 07:17:11;;;;;;;12.02;9.35;;;19.90;98.40;;;;;;4939308;29;20023;-43
2022/01/02 07:19:36;;;;;;;13.38;9.80;;;19.00;98.10;;;;;;4906126;29;20044;-41
2022/01/02 07:22:05;;;;;;;16.85;13.07;;;18.20;98.90;;;;;;4905928;29;20091;-42
2022/01/02 07:24:31;;;;;;;27.75;22.48;;;18.30;98.40;;;;;;4939259;29;20110;-43
2022/01/02 07:26:56;;;;;;;25.77;21.02;;;18.90;98.30;;;;;;4929854;29;20024;-42
2022/01/02 07:29:22;;;;;;;20.45;16.80;;;19.80;96.30;;;;;;4919577;29;20392;-42
2022/01/02 07:31:48;;;;;;;16.02;12.32;;;19.30;96.50;;;;;;4919748;29;20028;-43
2022/01/02 07:34:14;;;;;;;17.50;14.85;;;18.40;96.80;;;;;;4886523;29;20036;-42
2022/01/02 07:36:44;;;;;;;17.38;14.82;;;18.80;96.90;;;;;;4920027;29;20038;-45
2022/01/02 07:39:11;;;;;;;20.95;16.40;;;18.70;96.60;;;;;;4919747;29;20047;-42
2022/01/02 07:41:37;;;;;;;20.65;15.93;;;18.50;96.70;;;;;;4919833;29;20055;-44
2022/01/02 07:44:03;;;;;;;12.85;11.23;;;19.10;96.70;;;;;;4886618;29;20098;-42
2022/01/02 07:46:31;;;;;;;13.80;10.43;;;18.20;96.70;;;;;;4886797;29;20051;-43
2022/01/02 07:48:57;;;;;;;14.80;12.65;;;18.70;96.80;;;;;;4901964;29;20044;-43
2022/01/02 07:51:23;;;;;;;13.75;10.70;;;19.00;96.60;;;;;;4886509;29;20040;-44
2022/01/02 07:53:48;;;;;;;11.65;9.23;;;19.10;96.70;;;;;;4885983;29;20032;-42
2022/01/02 07:56:15;;;;;;;14.30;12.52;;;18.40;96.50;;;;;;4919204;29;20463;-41
2022/01/02 07:58:41;;;;;;;17.15;15.30;;;;;;;;;;4886164;29;20558;-42
2022/01/02 08:01:07;;;;;;;21.15;18.95;;;;;;;;;;4919003;29;20107;-43
2022/01/02 08:03:34;;;;;;;22.67;19.33;;;;;;;;;;4919253;29;20035;-42
2022/01/02 08:06:00;;;;;;;19.65;16.70;;;;;;;;;;4919102;29;20036;-42
2022/01/02 08:08:26;;;;;;;17.65;15.70;;;23.40;94.00;;;;;;4918978;29;20024;-42
2022/01/02 08:10:52;;;;;;;16.13;14.52;;;;;;;;;;4886150;29;20044;-44
2022/01/02 08:13:17;;;;;;;17.92;15.77;;;25.20;89.70;;;;;;4919271;29;20035;-44
2022/01/02 08:15:43;;;;;;;16.75;14.32;;;;;;;;;;4919123;29;20036;-42
2022/01/02 08:18:13;;;;;;;13.23;11.82;;;26.10;92.20;;;;;;4918969;29;20062;-42
2022/01/02 08:20:40;;;;;;;19.17;16.25;;;25.50;86.60;;;;;;4919091;29;20055;-44
2022/01/02 08:23:06;;;;;;;14.77;13.02;;;;;;;;;;4918934;29;20510;-43
2022/01/02 08:25:32;;;;;;;15.30;13.70;;;;;;;;;;4919105;29;20103;-43
2022/01/02 08:27:58;;;;;;;16.27;14.05;;;;;;;;;;4918611;29;20407;-45
2022/01/02 08:30:24;;;;;;;16.90;15.25;;;27.70;80.50;;;;;;4918516;29;20488;-43
2022/01/02 08:32:50;;;;;;;17.55;15.35;;;26.10;81.60;;;;;;4885742;29;20047;-43
2022/01/02 08:35:16;;;;;;;16.52;14.82;;;25.80;83.20;;;;;;4918721;29;20103;-46
2022/01/02 08:37:42;;;;;;;19.35;17.33;;;25.10;83.00;;;;;;4918703;29;20030;-44
2022/01/02 08:40:08;;;;;;;31.02;25.58;;;25.50;83.30;;;;;;4918395;29;20051;-44
2022/01/02 08:42:34;;;;;;;15.95;14.50;;;26.80;81.90;;;;;;4854660;29;20457;-42
2022/01/02 08:45:00;;;;;;;13.85;12.25;;;25.90;79.80;;;;;;4918863;29;20074;-42
2022/01/02 08:47:25;;;;;;;14.57;12.55;;;24.70;81.70;;;;;;4900695;29;20048;-45
2022/01/02 08:49:51;;;;;;;16.60;12.27;;;25.00;82.60;;;;;;4885238;29;20036;-45
2022/01/02 08:52:18;;;;;;;15.30;13.88;;;25.60;82.20;;;;;;4885414;29;20096;-45
2022/01/02 08:54:44;;;;;;;16.60;15.02;;;26.10;82.40;;;;;;4918396;29;20032;-42
2022/01/02 08:57:10;;;;;;;15.45;13.93;;;27.10;80.50;;;;;;4885361;29;20051;-43
2022/01/02 08:59:36;;;;;;;15.60;14.07;;;28.30;79.90;;;;;;4884752;29;20087;-45
2022/01/02 09:02:02;;;;;;;12.32;11.23;;;27.90;79.40;;;;;;4917792;29;20469;-45
2022/01/02 09:04:27;;;;;;;11.38;10.38;;;28.60;77.10;;;;;;4884765;29;20036;-45
2022/01/02 09:06:54;;;;;;;13.38;10.93;;;;;;;;;;4900008;29;20062;-43
2022/01/02 09:09:19;;;;;;;10.77;9.50;;;29.80;75.60;;;;;;4917911;29;20063;-46
2022/01/02 09:11:47;;;;;;;10.25;9.35;;;;;;;;;;4900304;29;20063;-43
2022/01/02 09:14:13;;;;;;;11.98;10.85;;;30.90;72.40;;;;;;4885026;29;20036;-43
2022/01/02 09:16:40;;;;;;;11.02;10.02;;;31.00;72.30;;;;;;4884947;29;20071;-46
2022/01/02 09:19:06;;;;;;;10.77;9.88;;;;;;;;;;4917772;29;20094;-45
2022/01/02 09:21:32;;;;;;;14.13;12.57;;;31.60;71.70;;;;;;4917781;29;20067;-42
2022/01/02 09:23:57;;;;;;;14.85;13.25;;;31.90;70.50;;;;;;4869674;29;20074;-46
2022/01/02 09:26:23;;;;;;;13.15;11.85;;;31.90;73.60;;;;;;4884535;29;20476;-45
2022/01/02 09:28:49;;;;;;;7.45;6.75;;;;;;;;;;4917765;29;20036;-44
2022/01/02 09:31:15;;;;;;;9.85;8.95;;;31.60;66.70;;;;;;4884774;29;20047;-43
2022/01/02 09:33:41;;;;;;;10.52;9.60;;;31.30;67.00;;;;;;4917985;29;20028;-45
2022/01/02 09:36:07;;;;;;;8.77;8.07;;;31.40;66.80;;;;;;4917723;29;20035;-44
2022/01/02 09:38:32;;;;;;;11.70;10.68;;;31.30;67.00;;;;;;4884222;29;20483;-45
2022/01/02 09:41:00;;;;;;;14.93;10.40;;;31.20;68.00;;;;;;4917542;29;20028;-45
2022/01/02 09:43:27;;;;;;;12.85;11.50;;;;;;;;;;4884418;29;20044;-44
2022/01/02 09:45:54;;;;;;;15.88;14.38;;;;;;;;;;4918073;29;20032;-46
2022/01/02 09:48:20;;;;;;;17.58;15.93;;;30.30;67.90;;;;;;4917295;29;20039;-44
2022/01/02 09:50:47;;;;;;;13.52;12.30;;;30.00;68.70;;;;;;4899867;29;20040;-43
2022/01/02 09:53:13;;;;;;;20.60;18.98;;;29.60;69.60;;;;;;4869157;29;20048;-43
2022/01/02 09:55:39;;;;;;;15.65;14.05;;;29.50;69.20;;;;;;4917227;29;20407;-44
2022/01/02 09:58:10;;;;;;;16.52;14.95;;;29.20;69.40;;;;;;4917078;29;20024;-44
2022/01/02 10:00:38;;;;;;;14.43;13.32;;;29.30;70.10;;;;;;4917008;29;20404;-46
2022/01/02 10:03:06;;;;;;;19.38;17.65;;;29.10;69.60;;;;;;4917251;29;20040;-43
2022/01/02 10:05:55;;;;;;;11.80;10.80;;;30.00;68.90;;;;;;4917343;29;20064;-45
2022/01/02 10:08:22;;;;;;;16.63;14.93;;;30.50;68.30;;;;;;4899865;29;20050;-45
2022/01/02 10:10:56;;;;;;;11.02;10.05;;;30.00;68.00;;;;;;4868957;29;20048;-46
2022/01/02 10:13:46;;;;;;;9.65;8.95;;;30.40;68.40;;;;;;4917125;29;20042;-44
2022/01/02 10:16:39;;;;;;;10.82;9.93;;;29.20;68.80;;;;;;4917525;29;20060;-42
2022/01/02 10:19:20;;;;;;;10.25;9.45;;;28.60;68.60;;;;;;4901530;29;20044;-44
2022/01/02 10:21:56;;;;;;;8.32;7.72;;;28.80;69.90;;;;;;4920863;29;20036;-45
2022/01/02 10:24:27;;;;;;;24.27;22.77;;;28.90;69.80;;;;;;4920910;29;20058;-46
2022/01/02 10:27:10;;;;;;;9.53;8.70;;;26.60;70.90;;;;;;4921377;29;20067;-45
2022/01/02 10:29:56;;;;;;;15.23;14.15;;;27.20;71.50;;;;;;4921109;29;20137;-43
2022/01/02 10:32:33;;;;;;;9.90;9.10;;;26.30;72.10;;;;;;4920744;29;20040;-44
2022/01/02 10:35:21;;;;;;;12.35;11.35;;;28.00;72.30;;;;;;4921351;29;20124;-47
2022/01/02 10:37:52;;;;;;;12.20;11.20;;;26.90;73.30;;;;;;4920608;29;20032;-45
2022/01/02 10:40:31;;;;;;;11.50;10.50;;;26.30;72.40;;;;;;4920831;29;20444;-44
2022/01/02 10:42:58;;;;;;;16.52;14.02;;;26.70;73.20;;;;;;4920652;29;20044;-45
2022/01/02 10:45:31;;;;;;;10.52;9.43;;;27.80;72.00;;;;;;4920408;29;20498;-44
2022/01/02 10:47:57;;;;;;;16.50;14.30;;;27.00;72.80;;;;;;4920530;29;20036;-44
2022/01/02 10:50:23;;;;;;;12.30;11.00;;;27.20;73.50;;;;;;4920642;29;20051;-45
2022/01/02 10:52:49;;;;;;;14.48;12.65;;;26.10;73.80;;;;;;4887338;29;20044;-45
2022/01/02 10:55:23;;;;;;;10.77;9.75;;;24.40;75.00;;;;;;4920560;29;20124;-43
2022/01/02 10:57:52;;;;;;;11.57;10.50;;;25.60;75.30;;;;;;4920334;29;20366;-44
2022/01/02 11:00:20;;;;;;;11.07;9.05;;;25.50;75.10;;;;;;4920257;29;20044;-43
2022/01/02 11:02:46;;;;;;;14.25;13.05;;;25.60;75.40;;;;;;4920048;29;20123;-43
2022/01/02 11:05:16;;;;;;;13.90;11.13;;;25.30;74.70;;;;;;4920437;29;20077;-46
2022/01/02 11:07:46;;;;;;;10.90;9.07;;;25.80;75.50;;;;;;4920046;29;20032;-43
2022/01/02 11:10:20;;;;;;;11.88;9.80;;;25.50;75.10;;;;;;4920518;29;20059;-44
2022/01/02 11:12:48;;;;;;;10.80;8.68;;;25.30;75.50;;;;;;4917170;29;20063;-44
2022/01/02 11:15:19;;;;;;;11.02;9.98;;;25.60;75.40;;;;;;4919912;29;20469;-43
2022/01/02 11:17:45;;;;;;;13.85;11.40;;;25.70;74.10;;;;;;4919787;29;20032;-46
2022/01/02 11:20:14;;;;;;;13.23;11.52;;;25.60;74.70;;;;;;4886976;29;20055;-45
2022/01/02 11:23:06;;;;;;;19.23;14.38;;;25.90;74.30;;;;;;4920177;29;20124;-42
2022/01/02 11:26:00;;;;;;;20.73;17.13;;;26.30;74.50;;;;;;4919234;29;20040;-46
2022/01/02 11:28:31;;;;;;;15.18;11.82;;;26.40;73.00;;;;;;4917888;29;20028;-44
2022/01/02 11:30:57;;;;;;;11.80;9.90;;;24.70;73.80;;;;;;4918751;29;20546;-45
2022/01/02 11:33:49;;;;;;;11.50;7.70;;;24.50;75.50;;;;;;4869640;29;20046;-44
2022/01/02 11:36:25;;;;;;;8.68;7.60;;;24.50;75.00;;;;;;4898292;29;20048;-44
2022/01/02 11:39:06;;;;;;;40.28;36.25;;;23.50;75.70;;;;;;4869427;29;20044;-46
2022/01/02 11:41:50;;;;;;;14.30;10.90;;;24.40;76.40;;;;;;4918846;29;20035;-43
2022/01/02 11:44:43;;;;;;;13.90;10.52;;;25.00;74.30;;;;;;4918613;29;20064;-43
2022/01/02 11:47:08;;;;;;;12.15;9.50;;;25.40;75.70;;;;;;4918541;29;20048;-44
2022/01/02 11:49:37;;;;;;;8.95;8.15;;;25.10;74.00;;;;;;4878394;29;20045;-45
2022/01/02 11:52:12;;;;;;;8.80;8.00;;;24.50;91.60;;;;;;4878921;29;20045;-43
2022/01/02 11:54:46;;;;;;;8.60;7.47;;;25.20;91.20;;;;;;4878834;29;20052;-42
2022/01/02 11:57:14;;;;;;;9.48;8.60;;;;;;;;;;4878527;29;20052;-44
2022/01/02 11:59:40;;;;;;;8.38;7.65;;;24.70;96.00;;;;;;4878482;29;20064;-45
2022/01/02 12:02:09;;;;;;;8.07;7.00;;;;;;;;;;4878291;29;20053;-43
2022/01/02 12:05:03;;;;;;;14.68;12.32;;;25.20;93.50;;;;;;4878444;29;20033;-43
2022/01/02 12:07:40;;;;;;;12.70;10.93;;;24.10;77.70;;;;;;4878254;29;20041;-44
2022/01/02 12:10:17;;;;;;;10.82;9.18;;;23.90;77.00;;;;;;4878134;29;20048;-45
2022/01/02 12:13:25;;;;;;;8.73;7.82;;;23.80;77.70;;;;;;4878081;29;20037;-44
2022/01/02 12:15:51;;;;;;;11.93;6.72;;;23.40;79.10;;;;;;4874589;29;20048;-43
2022/01/02 12:18:29;;;;;;;8.25;6.60;;;23.30;78.60;;;;;;4877705;29;20037;-43
2022/01/02 12:20:57;;;;;;;10.32;6.63;;;23.10;78.10;;;;;;4903208;29;20055;-43
2022/01/02 12:23:34;;;;;;;9.55;6.10;;;22.80;78.20;;;;;;4917704;29;20092;-45
2022/01/02 12:26:06;;;;;;;5.47;4.55;;;23.00;78.10;;;;;;4917638;29;20044;-46
2022/01/02 12:28:42;;;;;;;8.20;4.47;;;22.70;79.50;;;;;;4917627;29;20033;-44
2022/01/02 12:31:10;;;;;;;6.47;3.83;;;22.50;79.30;;;;;;4917467;29;20044;-45
2022/01/02 12:33:36;;;;;;;6.72;4.20;;;22.30;78.80;;;;;;4917852;29;20115;-42
2022/01/02 12:36:09;;;;;;;6.32;4.43;;;22.00;79.70;;;;;;4917542;29;20179;-42
2022/01/02 12:38:52;;;;;;;8.35;5.30;;;21.90;80.40;;;;;;4917445;29;20476;-44
2022/01/02 12:41:20;;;;;;;10.90;6.13;;;21.90;79.90;;;;;;4868535;29;20180;-45
2022/01/02 12:43:58;;;;;;;11.85;7.07;;;21.90;80.40;;;;;;4868403;29;20047;-45
2022/01/02 12:46:55;;;;;;;8.40;5.75;;;21.70;80.60;;;;;;4917285;29;20028;-44
2022/01/02 12:49:30;;;;;;;10.05;6.10;;;21.30;81.90;;;;;;4917317;29;20043;-43
2022/01/02 12:51:58;;;;;;;7.00;4.80;;;21.40;82.00;;;;;;4917184;29;20032;-42
2022/01/02 12:54:27;;;;;;;5.45;4.10;;;21.00;82.70;;;;;;4917188;29;20031;-44
2022/01/02 12:56:59;;;;;;;6.35;3.50;;;20.70;82.50;;;;;;4917053;29;20115;-43